Iris Victoria — V7TS8 — position and weather

sailwx.info

Track history (hours):
 
Tides and Currents Weather Stations Pressure Air Temp Water Temp Dewpoint Dewpoint Depression Visibility Wind Speed Wind Dir Waves Ship Positions

Iris Victoria

Last reported at 2017-Feb-21 02:33 UTC. Time now 2017-Feb-21 03:00 UTC.
Position N 36°08' E 014°39'.

Length 228 m; draft 8 m.

Type: Tanker. MMSI: 538003876.

Date/timePositionNaut miles runAvg speedWind from/ knotsBaromVisibWave heightAir tempDewpointWater temp
2017-Feb-21 02:33N 36°08' E 014°39'6 6.0
2017-Feb-21 01:33N 36°03' E 014°37'6 6.0
2017-Feb-21 00:33N 35°57' E 014°35'1 1.1
2017-Feb-20 23:33N 35°56' E 014°34'1 1.3
2017-Feb-20 22:33N 35°57' E 014°35'1 0.5
2017-Feb-20 21:33N 35°58' E 014°35'1 0.5
2017-Feb-20 20:33N 35°57' E 014°35'1 0.7
2017-Feb-20 19:33N 35°57' E 014°35'3 3.2
2017-Feb-20 18:33N 35°60' E 014°33'8 7.8
2017-Feb-20 17:33N 36°06' E 014°28'9 9.2
2017-Feb-20 16:33N 36°14' E 014°22'10 9.8
2017-Feb-20 15:33N 36°22' E 014°15'1 0.7
2017-Feb-20 14:33N 36°21' E 014°15'1 0.6
2017-Feb-20 13:33N 36°21' E 014°15'1 0.7
2017-Feb-20 12:33N 36°20' E 014°16'1 1.0
2017-Feb-20 11:33N 36°20' E 014°17'1 1.1
2017-Feb-20 10:33N 36°20' E 014°19'1 1.3
2017-Feb-20 09:33N 36°19' E 014°20'1 1.4
2017-Feb-20 08:33N 36°18' E 014°21'2 1.6
2017-Feb-20 07:33N 36°18' E 014°23'2 1.8
2017-Feb-20 06:33N 36°17' E 014°25'2 1.9
2017-Feb-20 05:33N 36°16' E 014°28'2 2.2
2017-Feb-20 04:33N 36°16' E 014°30'3 2.5
2017-Feb-20 03:33N 36°15' E 014°33'3 2.7
2017-Feb-20 02:33N 36°14' E 014°36'3 2.7
2017-Feb-20 01:33N 36°13' E 014°39'3 2.7
2017-Feb-20 00:33N 36°13' E 014°43'3 2.7
2017-Feb-19 23:33N 36°13' E 014°46'3 2.7
2017-Feb-19 22:33N 36°12' E 014°49'3 2.7
2017-Feb-19 21:29N 36°12' E 014°53'13 6.8
2017-Feb-19 19:33N 36°10' E 014°37'1212.2
2017-Feb-19 18:33N 36°09' E 014°22'1312.6
2017-Feb-19 17:33N 36°14' E 014°07'1313.0
2017-Feb-19 16:33N 36°19' E 013°53'3413.7
2017-Feb-19 14:05N 36°33' E 013°15'48613.5
2017-Feb-18 02:07N 37°33' E 003°10'38810.9
2017-Feb-16 14:32N 36°17' W 004°46'9 9.0
2017-Feb-16 13:33N 36°22' W 004°55'3 2.7
2017-Feb-16 12:33N 36°19' W 004°53'3 2.7
2017-Feb-16 11:33N 36°17' W 004°51'3 2.7
2017-Feb-16 10:30N 36°15' W 004°49'8 8.8
2017-Feb-16 09:33N 36°09' W 004°55'1110.3
2017-Feb-16 08:32N 36°02' W 005°05'1 1.0
2017-Feb-16 07:29N 36°03' W 005°04'1 0.8
2017-Feb-16 06:33N 36°03' W 005°03'1 0.9
2017-Feb-16 05:28N 36°04' W 005°03'2 0.9
2017-Feb-16 03:08N 36°05' W 005°00'1 1.1
2017-Feb-16 02:32N 36°05' W 004°60'10 1.3
2017-Feb-15 18:29N 36°11' W 004°49'2 2.1
2017-Feb-15 17:33N 36°12' W 004°47'16 0.8
2017-Feb-14 21:07N 36°12' W 004°27'0 0.8
2017-Feb-14 20:33N 36°13' W 004°27'1 0.6
2017-Feb-14 18:06N 36°13' W 004°25'0 0.7
2017-Feb-14 17:33N 36°14' W 004°25'26 1.4
2017-Feb-13 22:07N 36°07' W 004°56'712.5
2017-Feb-13 21:33N 36°05' W 005°05'1312.8
2017-Feb-13 20:33N 36°05' W 005°21'1 1.0
2017-Feb-13 19:33N 36°06' W 005°21'0 0.0
2017-Feb-13 18:33N 36°06' W 005°21'0 0.0
2017-Feb-13 17:33N 36°06' W 005°21'0 0.0
2017-Feb-13 16:33N 36°06' W 005°21'0 0.1
2017-Feb-13 15:33N 36°06' W 005°21'0 0.1
2017-Feb-13 14:33N 36°06' W 005°21'0 0.1
2017-Feb-13 13:33N 36°06' W 005°21'0 0.1
2017-Feb-13 12:33N 36°06' W 005°21'0 0.0
2017-Feb-13 11:33N 36°06' W 005°21'0 0.0
2017-Feb-13 10:33N 36°06' W 005°21'0 0.2
2017-Feb-13 09:33N 36°06' W 005°21'0 0.2
2017-Feb-13 08:33N 36°06' W 005°22'2 2.1
2017-Feb-13 07:33N 36°05' W 005°19'1110.4
2017-Feb-13 06:31N 36°09' W 005°07'1010.3
2017-Feb-13 05:30N 36°13' W 004°55'2 2.1
2017-Feb-13 04:32N 36°11' W 004°56'2 1.9
2017-Feb-13 03:32N 36°12' W 004°58'2 1.9
2017-Feb-13 02:32N 36°13' W 005°00'7 6.8
2017-Feb-13 01:33N 36°19' W 005°03'1 1.4
2017-Feb-13 00:33N 36°18' W 005°02'1 1.5
2017-Feb-12 23:33N 36°17' W 005°00'2 2.3
2017-Feb-12 22:33N 36°15' W 005°01'1111.0
2017-Feb-12 21:33N 36°08' W 005°12'1 1.4
2017-Feb-12 20:33N 36°10' W 005°11'1 1.5
2017-Feb-12 19:33N 36°11' W 005°10'1 0.9
2017-Feb-12 18:33N 36°12' W 005°09'1 1.4
2017-Feb-12 17:33N 36°13' W 005°09'1 0.6
2017-Feb-12 16:33N 36°13' W 005°08'1 1.4
2017-Feb-12 15:33N 36°12' W 005°07'1 1.1
2017-Feb-12 14:33N 36°11' W 005°06'1 1.0
2017-Feb-12 13:33N 36°11' W 005°05'1 1.3
2017-Feb-12 12:33N 36°10' W 005°03'0 0.3
2017-Feb-12 11:32N 36°09' W 005°04'7 7.3
2017-Feb-12 10:33N 36°09' W 005°12'1 0.7
2017-Feb-12 09:33N 36°09' W 005°12'1 0.6
2017-Feb-12 08:33N 36°09' W 005°11'1 0.9
2017-Feb-12 07:33N 36°09' W 005°10'0 0.5
2017-Feb-12 06:33N 36°08' W 005°10'7 6.6
2017-Feb-12 05:33N 36°02' W 005°14'1211.8
2017-Feb-12 04:33N 35°58' W 005°27'9 8.7
2017-Feb-12 03:33N 35°55' W 005°37'1312.3
2017-Feb-12 02:28N 35°54' W 005°54'  
Track history (hours):
 
Tides and Currents Weather Stations Pressure Air Temp Water Temp Dewpoint Dewpoint Depression Visibility Wind Speed Wind Dir Waves Ship Positions

Iris Victoria

Last reported at 2017-Feb-21 02:33 UTC. Time now 2017-Feb-21 03:00 UTC.
Position N 36°08' E 014°39'.

Length 228 m; draft 8 m.

Type: Tanker. MMSI: 538003876.

Date/timePositionNaut miles runAvg speedWind from/ knotsBaromVisibWave heightAir tempDewpointWater temp
2017-Feb-21 02:33N 36°08' E 014°39'6 6.0
2017-Feb-21 01:33N 36°03' E 014°37'6 6.0
2017-Feb-21 00:33N 35°57' E 014°35'1 1.1
2017-Feb-20 23:33N 35°56' E 014°34'1 1.3
2017-Feb-20 22:33N 35°57' E 014°35'1 0.5
2017-Feb-20 21:33N 35°58' E 014°35'1 0.5
2017-Feb-20 20:33N 35°57' E 014°35'1 0.7
2017-Feb-20 19:33N 35°57' E 014°35'3 3.2
2017-Feb-20 18:33N 35°60' E 014°33'8 7.8
2017-Feb-20 17:33N 36°06' E 014°28'9 9.2
2017-Feb-20 16:33N 36°14' E 014°22'10 9.8
2017-Feb-20 15:33N 36°22' E 014°15'1 0.7
2017-Feb-20 14:33N 36°21' E 014°15'1 0.6
2017-Feb-20 13:33N 36°21' E 014°15'1 0.7
2017-Feb-20 12:33N 36°20' E 014°16'1 1.0
2017-Feb-20 11:33N 36°20' E 014°17'1 1.1
2017-Feb-20 10:33N 36°20' E 014°19'1 1.3
2017-Feb-20 09:33N 36°19' E 014°20'1 1.4
2017-Feb-20 08:33N 36°18' E 014°21'2 1.6
2017-Feb-20 07:33N 36°18' E 014°23'2 1.8
2017-Feb-20 06:33N 36°17' E 014°25'2 1.9
2017-Feb-20 05:33N 36°16' E 014°28'2 2.2
2017-Feb-20 04:33N 36°16' E 014°30'3 2.5
2017-Feb-20 03:33N 36°15' E 014°33'3 2.7
2017-Feb-20 02:33N 36°14' E 014°36'3 2.7
2017-Feb-20 01:33N 36°13' E 014°39'3 2.7
2017-Feb-20 00:33N 36°13' E 014°43'3 2.7
2017-Feb-19 23:33N 36°13' E 014°46'3 2.7
2017-Feb-19 22:33N 36°12' E 014°49'3 2.7
2017-Feb-19 21:29N 36°12' E 014°53'13 6.8
2017-Feb-19 19:33N 36°10' E 014°37'1212.2
2017-Feb-19 18:33N 36°09' E 014°22'1312.6
2017-Feb-19 17:33N 36°14' E 014°07'1313.0
2017-Feb-19 16:33N 36°19' E 013°53'3413.7
2017-Feb-19 14:05N 36°33' E 013°15'48613.5
2017-Feb-18 02:07N 37°33' E 003°10'38810.9
2017-Feb-16 14:32N 36°17' W 004°46'9 9.0
2017-Feb-16 13:33N 36°22' W 004°55'3 2.7
2017-Feb-16 12:33N 36°19' W 004°53'3 2.7
2017-Feb-16 11:33N 36°17' W 004°51'3 2.7
2017-Feb-16 10:30N 36°15' W 004°49'8 8.8
2017-Feb-16 09:33N 36°09' W 004°55'1110.3
2017-Feb-16 08:32N 36°02' W 005°05'1 1.0
2017-Feb-16 07:29N 36°03' W 005°04'1 0.8
2017-Feb-16 06:33N 36°03' W 005°03'1 0.9
2017-Feb-16 05:28N 36°04' W 005°03'2 0.9
2017-Feb-16 03:08N 36°05' W 005°00'1 1.1
2017-Feb-16 02:32N 36°05' W 004°60'10 1.3
2017-Feb-15 18:29N 36°11' W 004°49'2 2.1
2017-Feb-15 17:33N 36°12' W 004°47'16 0.8
2017-Feb-14 21:07N 36°12' W 004°27'0 0.8
2017-Feb-14 20:33N 36°13' W 004°27'1 0.6
2017-Feb-14 18:06N 36°13' W 004°25'0 0.7
2017-Feb-14 17:33N 36°14' W 004°25'26 1.4
2017-Feb-13 22:07N 36°07' W 004°56'712.5
2017-Feb-13 21:33N 36°05' W 005°05'1312.8
2017-Feb-13 20:33N 36°05' W 005°21'1 1.0
2017-Feb-13 19:33N 36°06' W 005°21'0 0.0
2017-Feb-13 18:33N 36°06' W 005°21'0 0.0
2017-Feb-13 17:33N 36°06' W 005°21'0 0.0
2017-Feb-13 16:33N 36°06' W 005°21'0 0.1
2017-Feb-13 15:33N 36°06' W 005°21'0 0.1
2017-Feb-13 14:33N 36°06' W 005°21'0 0.1
2017-Feb-13 13:33N 36°06' W 005°21'0 0.1
2017-Feb-13 12:33N 36°06' W 005°21'0 0.0
2017-Feb-13 11:33N 36°06' W 005°21'0 0.0
2017-Feb-13 10:33N 36°06' W 005°21'0 0.2
2017-Feb-13 09:33N 36°06' W 005°21'0 0.2
2017-Feb-13 08:33N 36°06' W 005°22'2 2.1
2017-Feb-13 07:33N 36°05' W 005°19'1110.4
2017-Feb-13 06:31N 36°09' W 005°07'1010.3
2017-Feb-13 05:30N 36°13' W 004°55'2 2.1
2017-Feb-13 04:32N 36°11' W 004°56'2 1.9
2017-Feb-13 03:32N 36°12' W 004°58'2 1.9
2017-Feb-13 02:32N 36°13' W 005°00'7 6.8
2017-Feb-13 01:33N 36°19' W 005°03'1 1.4
2017-Feb-13 00:33N 36°18' W 005°02'1 1.5
2017-Feb-12 23:33N 36°17' W 005°00'2 2.3
2017-Feb-12 22:33N 36°15' W 005°01'1111.0
2017-Feb-12 21:33N 36°08' W 005°12'1 1.4
2017-Feb-12 20:33N 36°10' W 005°11'1 1.5
2017-Feb-12 19:33N 36°11' W 005°10'1 0.9
2017-Feb-12 18:33N 36°12' W 005°09'1 1.4
2017-Feb-12 17:33N 36°13' W 005°09'1 0.6
2017-Feb-12 16:33N 36°13' W 005°08'1 1.4
2017-Feb-12 15:33N 36°12' W 005°07'1 1.1
2017-Feb-12 14:33N 36°11' W 005°06'1 1.0
2017-Feb-12 13:33N 36°11' W 005°05'1 1.3
2017-Feb-12 12:33N 36°10' W 005°03'0 0.3
2017-Feb-12 11:32N 36°09' W 005°04'7 7.3
2017-Feb-12 10:33N 36°09' W 005°12'1 0.7
2017-Feb-12 09:33N 36°09' W 005°12'1 0.6
2017-Feb-12 08:33N 36°09' W 005°11'1 0.9
2017-Feb-12 07:33N 36°09' W 005°10'0 0.5
2017-Feb-12 06:33N 36°08' W 005°10'7 6.6
2017-Feb-12 05:33N 36°02' W 005°14'1211.8
2017-Feb-12 04:33N 35°58' W 005°27'9 8.7
2017-Feb-12 03:33N 35°55' W 005°37'1312.3
2017-Feb-12 02:28N 35°54' W 005°54'  

Dump ship's entire track history